createdAt,value
2019-06-10T00:00:50.787Z,6.4
2019-06-10T00:02:50.745Z,6.1
2019-06-10T00:04:50.796Z,6.4
2019-06-10T00:06:50.912Z,6.4
2019-06-10T00:08:50.582Z,6.0
2019-06-10T00:10:51.046Z,6.8
2019-06-10T00:12:51.401Z,6.6
2019-06-10T00:14:50.947Z,6.5
2019-06-10T00:16:50.787Z,6.5
2019-06-10T00:18:50.978Z,6.4
2019-06-10T00:20:51.208Z,7.6
2019-06-10T00:22:51.477Z,6.3
2019-06-10T00:24:52.046Z,7.4
2019-06-10T00:26:51.014Z,7.4
2019-06-10T00:28:51.274Z,6.4
2019-06-10T00:30:51.542Z,6.5
2019-06-10T00:32:51.514Z,7.0
2019-06-10T00:34:50.827Z,7.0
2019-06-10T00:36:50.834Z,6.1
2019-06-10T00:38:51.684Z,6.7
2019-06-10T00:40:51.284Z,6.1
2019-06-10T00:42:50.704Z,6.1
2019-06-10T00:44:50.867Z,6.8
2019-06-10T00:46:51.579Z,7.8
2019-06-10T00:48:50.859Z,6.6
2019-06-10T00:50:51.754Z,6.5
2019-06-10T00:52:51.634Z,6.5
2019-06-10T00:54:51.853Z,6.1
2019-06-10T00:56:51.654Z,6.5
2019-06-10T00:58:51.349Z,6.4
2019-06-10T01:00:51.607Z,6.4
2019-06-10T01:02:51.768Z,7.0
2019-06-10T01:04:51.349Z,6.7
2019-06-10T01:06:51.346Z,6.7
2019-06-10T01:08:51.199Z,6.5
2019-06-10T01:10:52.195Z,7.0
2019-06-10T01:12:51.290Z,7.0
2019-06-10T01:14:51.492Z,7.0
2019-06-10T01:16:50.604Z,6.7
2019-06-10T01:18:52.796Z,6.9
2019-06-10T01:20:51.684Z,7.1
2019-06-10T01:22:51.594Z,6.7
2019-06-10T01:24:51.022Z,6.7
2019-06-10T01:26:50.533Z,6.8
2019-06-10T01:28:51.574Z,6.9
2019-06-10T01:30:51.664Z,7.1
2019-06-10T01:32:50.610Z,7.1
2019-06-10T01:34:50.789Z,7.0
2019-06-10T01:36:50.898Z,8.2
2019-06-10T01:38:51.088Z,7.6
2019-06-10T01:40:50.899Z,7.1
2019-06-10T01:42:50.714Z,7.1
2019-06-10T01:44:50.639Z,7.2
2019-06-10T01:46:51.579Z,7.0
2019-06-10T01:48:52.027Z,10.3
2019-06-10T01:50:51.213Z,7.2
2019-06-10T01:52:51.541Z,7.2
2019-06-10T01:54:51.488Z,7.4
2019-06-10T01:56:51.005Z,8.0
2019-06-10T01:58:51.305Z,8.3
2019-06-10T02:00:50.713Z,8.3
2019-06-10T02:02:52.326Z,7.6
2019-06-10T02:04:51.681Z,6.9
2019-06-10T02:06:51.082Z,6.9
2019-06-10T02:08:50.973Z,7.7
2019-06-10T02:10:50.919Z,7.7
2019-06-10T02:12:50.812Z,8.1
2019-06-10T02:14:50.888Z,8.2
2019-06-10T02:16:50.653Z,8.1
2019-06-10T02:19:00.010Z,8.1
2019-06-10T02:20:51.392Z,8.1
2019-06-10T02:22:51.526Z,7.8
2019-06-10T02:24:50.626Z,7.9
2019-06-10T02:26:51.592Z,8.1
2019-06-10T02:28:51.190Z,7.8
2019-06-10T02:30:54.323Z,7.8
2019-06-10T02:32:52.334Z,8.6
2019-06-10T02:35:03.243Z,8.2
2019-06-10T02:36:53.405Z,8.4
2019-06-10T02:38:53.707Z,8.4
2019-06-10T02:40:53.580Z,8.2
2019-06-10T02:42:50.101Z,8.1
2019-06-10T02:44:53.865Z,8.1
2019-06-10T02:46:54.172Z,8.2
2019-06-10T02:48:49.789Z,8.2
2019-06-10T02:50:53.469Z,8.6
2019-06-10T02:52:49.460Z,8.4
2019-06-10T02:54:53.321Z,8.7
2019-06-10T02:56:53.402Z,8.2
2019-06-10T02:58:53.214Z,8.2
2019-06-10T03:00:49.758Z,8.3
2019-06-10T03:02:52.907Z,8.9
2019-06-10T03:04:49.895Z,8.0
2019-06-10T03:06:50.174Z,8.0
2019-06-10T03:08:50.051Z,8.3
2019-06-10T03:10:49.546Z,8.6
2019-06-10T03:12:49.757Z,8.2
2019-06-10T03:14:49.792Z,8.2
2019-06-10T03:16:49.511Z,8.7
2019-06-10T03:18:49.621Z,8.7
2019-06-10T03:20:52.356Z,8.5
2019-06-10T03:22:52.181Z,8.3
2019-06-10T03:24:49.706Z,8.0
2019-06-10T03:26:52.168Z,8.0
2019-06-10T03:28:52.011Z,7.7
2019-06-10T03:30:54.881Z,8.2
2019-06-10T03:32:50.194Z,9.3
2019-06-10T03:34:49.840Z,9.0
2019-06-10T03:36:50.191Z,9.0
2019-06-10T03:38:50.367Z,8.2
2019-06-10T03:40:52.437Z,8.6
2019-06-10T03:42:51.565Z,8.9
2019-06-10T03:44:52.408Z,8.9
2019-06-10T03:46:51.849Z,10.2
2019-06-10T03:48:49.600Z,8.3
2019-06-10T03:50:49.634Z,8.0
2019-06-10T03:52:52.306Z,7.9
2019-06-10T03:54:49.499Z,8.2
2019-06-10T03:56:51.610Z,8.2
2019-06-10T03:58:52.060Z,8.6
2019-06-10T04:00:52.212Z,8.5
2019-06-10T04:02:49.475Z,8.5
2019-06-10T04:04:52.219Z,8.1
2019-06-10T04:06:52.907Z,8.1
2019-06-10T04:08:52.201Z,8.1
2019-06-10T04:10:49.470Z,8.0
2019-06-10T04:12:51.899Z,8.6
2019-06-10T04:14:52.130Z,8.4
2019-06-10T04:16:52.446Z,8.4
2019-06-10T04:18:49.704Z,8.0
2019-06-10T04:20:49.861Z,8.3
2019-06-10T04:22:51.819Z,8.2
2019-06-10T04:24:52.018Z,8.2
2019-06-10T04:26:52.101Z,8.3
2019-06-10T04:28:50.211Z,8.2
2019-06-10T04:30:50.029Z,8.1
2019-06-10T04:32:50.177Z,7.9
2019-06-10T04:34:52.848Z,7.9
2019-06-10T04:36:52.531Z,8.3
2019-06-10T04:38:51.937Z,8.9
2019-06-10T04:40:49.704Z,8.9
2019-06-10T04:42:52.386Z,9.2
2019-06-10T04:44:49.644Z,9.2
2019-06-10T04:46:51.950Z,9.4
2019-06-10T04:48:50.150Z,9.4
2019-06-10T04:50:50.236Z,9.0
2019-06-10T04:52:49.454Z,8.8
2019-06-10T04:54:49.587Z,8.8
2019-06-10T04:56:49.899Z,9.8
2019-06-10T04:58:52.320Z,9.4
2019-06-10T05:00:52.171Z,9.1
2019-06-10T05:02:49.487Z,9.2
2019-06-10T05:04:49.790Z,9.2
2019-06-10T05:06:52.534Z,9.3
2019-06-10T05:08:50.119Z,9.3
2019-06-10T05:10:50.170Z,8.9
2019-06-10T05:12:49.790Z,8.6
2019-06-10T05:14:49.623Z,8.6
2019-06-10T05:16:49.586Z,9.3
2019-06-10T05:18:51.702Z,9.1
2019-06-10T05:20:55.722Z,9.4
2019-06-10T05:22:49.714Z,9.3
2019-06-10T05:24:49.794Z,9.3
2019-06-10T05:26:52.261Z,9.2
2019-06-10T05:28:51.890Z,9.3
2019-06-10T05:30:49.568Z,9.6
2019-06-10T05:32:49.596Z,9.5
2019-06-10T05:34:49.761Z,9.5
2019-06-10T05:36:52.044Z,8.8
2019-06-10T05:38:52.000Z,9.2
2019-06-10T05:40:51.977Z,9.3
2019-06-10T05:42:50.292Z,9.3
2019-06-10T05:44:52.275Z,9.1
2019-06-10T05:46:49.847Z,8.4
2019-06-10T05:48:52.409Z,8.4
2019-06-10T05:51:00.004Z,8.6
2019-06-10T05:52:51.914Z,8.6
2019-06-10T05:54:52.096Z,9.0
2019-06-10T05:56:52.040Z,8.9
2019-06-10T05:58:52.249Z,8.3
2019-06-10T06:00:49.595Z,9.1
2019-06-10T06:02:52.099Z,9.1
2019-06-10T06:04:49.983Z,8.2
2019-06-10T06:06:53.004Z,7.7
2019-06-10T06:08:50.365Z,7.9
2019-06-10T06:10:52.629Z,8.3
2019-06-10T06:12:49.728Z,8.3
2019-06-10T06:14:49.676Z,8.0
2019-06-10T06:16:50.024Z,8.2
2019-06-10T06:18:52.473Z,7.9
2019-06-10T06:20:52.080Z,7.9
2019-06-10T06:22:51.749Z,8.4
2019-06-10T06:24:52.203Z,8.9
2019-06-10T06:26:49.736Z,8.2
2019-06-10T06:28:50.170Z,8.2
2019-06-10T06:30:49.641Z,8.2
2019-06-10T06:32:49.891Z,8.2
2019-06-10T06:34:49.661Z,8.9
2019-06-10T06:36:49.932Z,8.0
2019-06-10T06:38:49.981Z,8.1
2019-06-10T06:40:53.500Z,8.1
2019-06-10T06:42:52.394Z,8.4
2019-06-10T06:44:52.382Z,8.3
2019-06-10T06:46:50.015Z,8.1
2019-06-10T06:48:52.932Z,8.1
2019-06-10T06:51:01.597Z,7.4
2019-06-10T06:53:16.771Z,7.9
2019-06-10T06:54:50.271Z,8.2
2019-06-10T06:56:50.351Z,8.2
2019-06-10T06:58:52.195Z,8.1
2019-06-10T07:01:00.048Z,8.1
2019-06-10T07:02:52.772Z,7.1
2019-06-10T07:04:49.691Z,6.9
2019-06-10T07:06:53.151Z,6.5
2019-06-10T07:09:01.294Z,6.5
2019-06-10T07:10:52.090Z,6.3
2019-06-10T07:12:52.310Z,6.4
2019-06-10T07:14:49.474Z,6.7
2019-06-10T07:16:49.653Z,5.4
2019-06-10T07:18:50.505Z,5.4
2019-06-10T07:20:50.306Z,6.6
2019-06-10T07:22:50.333Z,4.4
2019-06-10T07:24:52.632Z,4.4
2019-06-10T07:26:54.104Z,4.4
2019-06-10T07:28:50.193Z,4.4
2019-06-10T07:30:52.417Z,4.3
2019-06-10T07:32:49.491Z,3.8
2019-06-10T07:34:52.298Z,4.2
2019-06-10T07:36:52.001Z,4.7
2019-06-10T07:38:49.586Z,4.7
2019-06-10T07:40:50.138Z,5.2
2019-06-10T07:42:50.068Z,5.4
2019-06-10T07:44:49.806Z,4.9
2019-06-10T07:46:50.026Z,4.9
2019-06-10T07:48:53.374Z,5.5
2019-06-10T07:50:49.960Z,4.4
2019-06-10T07:52:49.955Z,3.9
2019-06-10T07:54:49.633Z,3.7
2019-06-10T07:56:51.229Z,3.7
2019-06-10T07:58:52.522Z,3.7
2019-06-10T08:00:53.084Z,3.7
2019-06-10T08:02:49.760Z,3.9
2019-06-10T08:04:53.456Z,4.9
2019-06-10T08:06:52.396Z,4.9
2019-06-10T08:08:52.400Z,4.8
2019-06-10T08:10:49.542Z,4.2
2019-06-10T08:12:49.721Z,6.1
2019-06-10T08:14:49.631Z,6.1
2019-06-10T08:16:52.890Z,4.1
2019-06-10T08:19:15.810Z,4.1
2019-06-10T08:20:52.640Z,4.9
2019-06-10T08:22:54.320Z,4.9
2019-06-10T08:24:52.299Z,4.4
2019-06-10T08:26:49.706Z,4.5
2019-06-10T08:28:52.383Z,4.2
2019-06-10T08:30:52.919Z,4.1
2019-06-10T08:32:53.268Z,4.1
2019-06-10T08:34:52.846Z,4.8
2019-06-10T08:36:51.507Z,4.8
2019-06-10T08:38:52.429Z,4.3
2019-06-10T08:40:52.311Z,4.3
2019-06-10T08:42:49.787Z,4.2
2019-06-10T08:44:49.991Z,4.9
2019-06-10T08:46:52.411Z,4.9
2019-06-10T08:48:49.807Z,4.7
2019-06-10T08:50:50.091Z,4.3
2019-06-10T08:53:03.191Z,4.0
2019-06-10T08:54:51.767Z,4.0
2019-06-10T08:56:51.528Z,4.6
2019-06-10T08:58:51.530Z,4.5
2019-06-10T09:00:52.806Z,4.5
2019-06-10T09:02:51.336Z,4.0
2019-06-10T09:04:51.148Z,4.0
2019-06-10T09:06:51.427Z,5.1
2019-06-10T09:08:53.730Z,4.2
2019-06-10T09:10:52.330Z,3.9
2019-06-10T09:12:51.961Z,4.4
2019-06-10T09:14:50.564Z,4.4
2019-06-10T09:16:51.267Z,3.8
2019-06-10T09:18:51.140Z,3.8
2019-06-10T09:20:52.752Z,4.1
2019-06-10T09:23:08.062Z,4.8
2019-06-10T09:24:52.913Z,4.8
2019-06-10T09:26:51.044Z,4.6
2019-06-10T09:28:52.830Z,4.6
2019-06-10T09:30:53.759Z,4.1
2019-06-10T09:32:51.880Z,4.1
2019-06-10T09:34:52.666Z,4.3
2019-06-10T09:36:56.367Z,5.3
2019-06-10T09:38:54.770Z,4.1
2019-06-10T09:40:53.332Z,4.2
2019-06-10T09:42:52.815Z,3.8
2019-06-10T09:44:52.410Z,3.8
2019-06-10T09:46:51.783Z,4.2
2019-06-10T09:48:53.406Z,4.2
2019-06-10T09:50:53.092Z,4.1
2019-06-10T09:52:52.108Z,4.1
2019-06-10T09:54:52.543Z,4.6
2019-06-10T09:56:51.861Z,4.0
2019-06-10T09:58:51.189Z,4.3
2019-06-10T10:00:53.339Z,4.3
2019-06-10T10:02:51.880Z,4.4
2019-06-10T10:04:52.643Z,4.4
2019-06-10T10:06:52.341Z,4.4
2019-06-10T10:08:53.771Z,5.6
2019-06-10T10:10:51.133Z,5.6
2019-06-10T10:12:51.963Z,4.9
2019-06-10T10:14:51.428Z,3.9
2019-06-10T10:16:52.637Z,3.8
2019-06-10T10:18:53.270Z,4.0
2019-06-10T10:20:52.621Z,4.0
2019-06-10T10:22:50.509Z,4.5
2019-06-10T10:24:51.361Z,4.4
2019-06-10T10:26:52.337Z,6.2
2019-06-10T10:28:51.849Z,4.1
2019-06-10T10:30:52.486Z,4.1
2019-06-10T10:32:52.052Z,4.1
2019-06-10T10:34:51.504Z,3.9
2019-06-10T10:36:53.719Z,3.4
2019-06-10T10:38:50.725Z,4.4
2019-06-10T10:40:50.661Z,4.4
2019-06-10T10:42:56.669Z,3.3
2019-06-10T10:44:51.906Z,3.4
2019-06-10T10:46:49.711Z,3.6
2019-06-10T10:48:49.578Z,3.4
2019-06-10T10:50:54.282Z,3.4
2019-06-10T10:52:52.247Z,4.1
2019-06-10T10:54:50.964Z,3.2
2019-06-10T10:56:52.279Z,3.4
2019-06-10T10:58:52.046Z,6.3
2019-06-10T11:00:51.774Z,6.3
2019-06-10T11:02:51.068Z,3.6
2019-06-10T11:04:49.805Z,3.6
2019-06-10T11:06:50.168Z,3.3
2019-06-10T11:08:49.966Z,3.1
2019-06-10T11:10:51.688Z,3.1
2019-06-10T11:12:51.038Z,3.0
2019-06-10T11:14:51.689Z,3.3
2019-06-10T11:16:50.753Z,3.5
2019-06-10T11:18:51.839Z,3.5
2019-06-10T11:20:51.209Z,3.3
2019-06-10T11:22:49.646Z,4.6
2019-06-10T11:24:51.213Z,3.4
2019-06-10T11:26:53.185Z,4.2
2019-06-10T11:28:52.785Z,4.2
2019-06-10T11:30:49.790Z,3.2
2019-06-10T11:32:50.729Z,2.8
2019-06-10T11:34:49.810Z,4.6
2019-06-10T11:36:50.493Z,3.4
2019-06-10T11:38:52.775Z,3.4
2019-06-10T11:40:51.343Z,3.3
2019-06-10T11:42:50.486Z,4.0
2019-06-10T11:44:50.667Z,3.4
2019-06-10T11:46:51.233Z,3.4
2019-06-10T11:48:49.583Z,3.1
2019-06-10T11:50:51.219Z,3.1
2019-06-10T11:52:55.125Z,3.4
2019-06-10T11:54:58.044Z,3.4
2019-06-10T11:56:50.029Z,3.0
2019-06-10T11:58:50.037Z,3.6
2019-06-10T12:00:53.307Z,3.5
2019-06-10T12:02:50.827Z,3.0
2019-06-10T12:04:50.912Z,2.9
2019-06-10T12:06:50.603Z,3.0
2019-06-10T12:08:51.423Z,3.0
2019-06-10T12:10:51.479Z,3.0
2019-06-10T12:12:53.535Z,3.0
2019-06-10T12:14:53.522Z,3.1
2019-06-10T12:17:17.308Z,2.8
2019-06-10T12:18:50.790Z,2.8
2019-06-10T12:20:49.894Z,3.3
2019-06-10T12:22:50.121Z,2.7
2019-06-10T12:24:50.335Z,3.0
2019-06-10T12:26:49.891Z,3.0
2019-06-10T12:28:52.432Z,2.8
2019-06-10T12:30:50.991Z,2.9
2019-06-10T12:32:51.016Z,2.9
2019-06-10T12:34:51.256Z,3.2
2019-06-10T12:36:50.496Z,3.2
2019-06-10T12:38:53.363Z,2.8
2019-06-10T12:40:49.762Z,3.0
2019-06-10T12:42:52.473Z,2.8
2019-06-10T12:44:49.995Z,3.3
2019-06-10T12:46:53.295Z,3.3
2019-06-10T12:48:49.750Z,2.6
2019-06-10T12:50:50.152Z,2.5
2019-06-10T12:52:52.857Z,2.6
2019-06-10T12:54:50.268Z,2.6
2019-06-10T12:56:49.479Z,3.3
2019-06-10T12:58:49.732Z,2.7
2019-06-10T13:00:49.821Z,3.2
2019-06-10T13:02:50.119Z,2.9
2019-06-10T13:04:51.942Z,2.9
2019-06-10T13:06:49.498Z,3.5
2019-06-10T13:08:52.951Z,3.8
2019-06-10T13:10:53.017Z,3.4
2019-06-10T13:12:52.348Z,3.4
2019-06-10T13:14:52.048Z,2.6
2019-06-10T13:16:52.444Z,3.0
2019-06-10T13:18:52.300Z,4.3
2019-06-10T13:20:49.673Z,2.7
2019-06-10T13:22:49.769Z,2.6
2019-06-10T13:24:49.983Z,2.6
2019-06-10T13:26:49.500Z,3.5
2019-06-10T13:28:52.256Z,2.9
2019-06-10T13:30:49.723Z,3.5
2019-06-10T13:32:52.537Z,3.5
2019-06-10T13:34:52.611Z,3.0
2019-06-10T13:36:50.059Z,3.5
2019-06-10T13:38:49.714Z,3.2
2019-06-10T13:40:49.810Z,3.1
2019-06-10T13:42:49.957Z,3.1
2019-06-10T13:44:49.648Z,5.2
2019-06-10T13:46:50.295Z,3.2
2019-06-10T13:48:52.255Z,4.3
2019-06-10T13:50:50.157Z,3.8
2019-06-10T13:52:52.035Z,3.8
2019-06-10T13:54:50.118Z,3.1
2019-06-10T13:56:52.203Z,4.0
2019-06-10T13:58:51.790Z,3.4
2019-06-10T14:00:53.284Z,2.8
2019-06-10T14:02:52.191Z,2.8
2019-06-10T14:04:50.111Z,4.2
2019-06-10T14:06:51.196Z,3.0
2019-06-10T14:08:49.460Z,2.6
2019-06-10T14:10:50.060Z,3.0
2019-06-10T14:12:52.477Z,3.0
2019-06-10T14:14:49.842Z,2.6
2019-06-10T14:16:50.075Z,2.9
2019-06-10T14:18:50.289Z,3.1
2019-06-10T14:20:53.032Z,2.9
2019-06-10T14:22:49.610Z,2.9
2019-06-10T14:24:49.580Z,4.9
2019-06-10T14:26:49.911Z,4.1
2019-06-10T14:28:52.410Z,3.0
2019-06-10T14:30:49.745Z,3.6
2019-06-10T14:32:49.913Z,3.6
2019-06-10T14:34:49.454Z,2.9
2019-06-10T14:36:49.707Z,3.3
2019-06-10T14:38:49.495Z,3.1
2019-06-10T14:40:49.610Z,3.1
2019-06-10T14:42:49.717Z,2.9
2019-06-10T14:44:49.526Z,4.0
2019-06-10T14:46:49.626Z,4.0
2019-06-10T14:48:49.734Z,2.9
2019-06-10T14:50:50.021Z,2.9
2019-06-10T14:52:50.231Z,2.9
2019-06-10T14:54:52.516Z,2.8
2019-06-10T14:56:54.478Z,3.3
2019-06-10T14:58:49.460Z,3.3
2019-06-10T15:00:49.679Z,3.7
2019-06-10T15:02:49.728Z,4.5
2019-06-10T15:04:50.272Z,4.4
2019-06-10T15:06:49.604Z,3.3
2019-06-10T15:08:49.777Z,3.3
2019-06-10T15:10:52.509Z,4.0
2019-06-10T15:12:50.068Z,4.0
2019-06-10T15:14:52.045Z,2.9
2019-06-10T15:16:53.145Z,3.1
2019-06-10T15:18:49.652Z,3.1
2019-06-10T15:20:49.604Z,2.8
2019-06-10T15:22:52.464Z,4.0
2019-06-10T15:24:49.878Z,2.8
2019-06-10T15:27:03.341Z,3.6
2019-06-10T15:28:52.194Z,3.6
2019-06-10T15:30:49.441Z,3.0
2019-06-10T15:32:52.271Z,3.0
2019-06-10T15:34:52.406Z,3.0
2019-06-10T15:36:52.172Z,2.9
2019-06-10T15:38:52.320Z,2.9
2019-06-10T15:40:49.796Z,3.5
2019-06-10T15:42:52.716Z,4.6
2019-06-10T15:44:53.247Z,2.8
2019-06-10T15:46:49.450Z,2.8
2019-06-10T15:48:49.509Z,3.6
2019-06-10T15:50:49.595Z,4.4
2019-06-10T15:52:52.217Z,4.6
2019-06-10T15:54:49.728Z,6.4
2019-06-10T15:56:52.787Z,6.4
2019-06-10T15:58:52.036Z,4.8
2019-06-10T16:00:52.645Z,5.8
2019-06-10T16:02:49.802Z,9.8
2019-06-10T16:04:52.436Z,9.8
2019-06-10T16:06:50.314Z,7.8
2019-06-10T16:08:52.257Z,4.3
2019-06-10T16:10:51.863Z,4.7
2019-06-10T16:12:52.213Z,6.1
2019-06-10T16:14:50.050Z,6.6
2019-06-10T16:16:52.413Z,6.6
2019-06-10T16:18:49.771Z,6.7
2019-06-10T16:20:52.033Z,4.8
2019-06-10T16:22:52.312Z,7.3
2019-06-10T16:24:49.538Z,6.1
2019-06-10T16:26:49.751Z,6.1
2019-06-10T16:28:49.481Z,4.7
2019-06-10T16:30:50.283Z,5.2
2019-06-10T16:32:49.980Z,6.5
2019-06-10T16:34:52.114Z,5.1
2019-06-10T16:36:49.552Z,5.1
2019-06-10T16:38:49.604Z,5.6
2019-06-10T16:40:49.704Z,6.9
2019-06-10T16:42:49.821Z,6.9
2019-06-10T16:44:49.845Z,6.9
2019-06-10T16:46:52.510Z,6.0
2019-06-10T16:48:52.594Z,5.7
2019-06-10T16:50:49.932Z,7.5
2019-06-10T16:52:50.189Z,8.1
2019-06-10T16:54:49.549Z,8.1
2019-06-10T16:56:52.150Z,6.9
2019-06-10T16:58:52.277Z,6.7
2019-06-10T17:00:49.479Z,6.9
2019-06-10T17:02:49.508Z,6.9
2019-06-10T17:04:52.488Z,8.2
2019-06-10T17:06:49.875Z,7.5
2019-06-10T17:08:49.572Z,9.7
2019-06-10T17:10:52.134Z,8.0
2019-06-10T17:12:49.873Z,8.0
2019-06-10T17:14:52.529Z,7.7
2019-06-10T17:16:52.283Z,7.7
2019-06-10T17:18:49.933Z,7.2
2019-06-10T17:20:50.044Z,7.4
2019-06-10T17:22:52.338Z,7.4
2019-06-10T17:24:49.522Z,8.6
2019-06-10T17:26:49.730Z,8.1
2019-06-10T17:28:51.766Z,8.1
2019-06-10T17:30:52.863Z,5.7
2019-06-10T17:32:50.226Z,5.7
2019-06-10T17:34:49.854Z,10.0
2019-06-10T17:36:49.610Z,7.6
2019-06-10T17:38:49.622Z,6.4
2019-06-10T17:40:49.539Z,8.4
2019-06-10T17:42:50.157Z,8.4
2019-06-10T17:44:50.199Z,7.4
2019-06-10T17:46:50.147Z,6.6
2019-06-10T17:48:52.024Z,6.3
2019-06-10T17:50:52.432Z,9.3
2019-06-10T17:52:49.794Z,9.3
2019-06-10T17:54:49.909Z,7.4
2019-06-10T17:56:49.893Z,7.4
2019-06-10T17:58:54.786Z,8.4
2019-06-10T18:00:52.799Z,10.9
2019-06-10T18:02:50.358Z,10.9
2019-06-10T18:04:52.288Z,8.1
2019-06-10T18:06:49.979Z,10.0
2019-06-10T18:08:52.186Z,10.0
2019-06-10T18:10:52.885Z,8.4
2019-06-10T18:12:50.033Z,8.4
2019-06-10T18:14:51.921Z,10.1
2019-06-10T18:16:51.958Z,10.9
2019-06-10T18:18:52.280Z,10.9
2019-06-10T18:20:52.942Z,13.3
2019-06-10T18:22:50.023Z,13.2
2019-06-10T18:24:49.639Z,14.6
2019-06-10T18:26:49.571Z,13.6
2019-06-10T18:29:04.686Z,14.0
2019-06-10T18:30:49.487Z,14.0
2019-06-10T18:32:52.515Z,12.8
2019-06-10T18:34:52.073Z,15.7
2019-06-10T18:36:52.103Z,13.2
2019-06-10T18:38:52.143Z,12.9
2019-06-10T18:40:49.748Z,12.9
2019-06-10T18:42:52.175Z,12.1
2019-06-10T18:44:52.192Z,11.3
2019-06-10T18:46:49.543Z,12.7
2019-06-10T18:48:49.620Z,12.2
2019-06-10T18:50:49.746Z,12.2
2019-06-10T18:52:50.269Z,11.3
2019-06-10T18:54:52.715Z,13.1
2019-06-10T18:56:52.469Z,14.3
2019-06-10T18:58:49.554Z,14.3
2019-06-10T19:01:00.515Z,14.3
2019-06-10T19:02:53.619Z,14.8
2019-06-10T19:04:49.508Z,12.1
2019-06-10T19:06:52.204Z,13.6
2019-06-10T19:08:52.461Z,12.9
2019-06-10T19:10:52.931Z,12.9
2019-06-10T19:12:49.821Z,13.1
2019-06-10T19:14:52.150Z,12.7
2019-06-10T19:16:49.600Z,12.7
2019-06-10T19:18:52.492Z,14.4
2019-06-10T19:20:52.367Z,13.6
2019-06-10T19:22:49.577Z,14.5
2019-06-10T19:24:49.677Z,16.1
2019-06-10T19:26:52.590Z,16.5
2019-06-10T19:28:49.805Z,16.5
2019-06-10T19:30:50.035Z,16.1
2019-06-10T19:32:50.114Z,15.8
2019-06-10T19:34:52.062Z,19.6
2019-06-10T19:36:52.142Z,16.1
2019-06-10T19:38:50.406Z,16.1
2019-06-10T19:40:51.974Z,17.0
2019-06-10T19:42:49.555Z,16.1
2019-06-10T19:44:52.265Z,15.8
2019-06-10T19:46:51.733Z,15.8
2019-06-10T19:48:57.834Z,16.8
2019-06-10T19:50:53.598Z,17.1
2019-06-10T19:52:51.628Z,16.1
2019-06-10T19:54:50.096Z,17.1
2019-06-10T19:56:52.336Z,17.2
2019-06-10T19:58:49.507Z,17.2
2019-06-10T20:00:51.679Z,17.0
2019-06-10T20:02:49.730Z,16.5
2019-06-10T20:04:49.763Z,18.1
2019-06-10T20:06:50.729Z,18.1
2019-06-10T20:08:52.132Z,15.7
2019-06-10T20:10:52.829Z,14.7
2019-06-10T20:12:49.520Z,14.7
2019-06-10T20:14:49.529Z,18.8
2019-06-10T20:16:52.468Z,18.8
2019-06-10T20:18:49.922Z,15.7
2019-06-10T20:20:50.027Z,16.4
2019-06-10T20:22:50.126Z,17.4
2019-06-10T20:24:49.548Z,18.1
2019-06-10T20:26:49.475Z,18.1
2019-06-10T20:28:52.852Z,18.0
2019-06-10T20:30:49.569Z,17.9
2019-06-10T20:32:51.473Z,17.9
2019-06-10T20:34:52.672Z,18.6
2019-06-10T20:36:50.143Z,18.6
2019-06-10T20:38:51.145Z,18.7
2019-06-10T20:40:49.509Z,18.4
2019-06-10T20:42:49.597Z,21.2
2019-06-10T20:44:49.591Z,21.2
2019-06-10T20:46:49.904Z,18.9
2019-06-10T20:48:51.213Z,21.6
2019-06-10T20:50:50.074Z,22.8
2019-06-10T20:52:52.395Z,21.8
2019-06-10T20:54:50.041Z,21.8
2019-06-10T20:56:50.324Z,23.3
2019-06-10T20:58:51.978Z,26.2
2019-06-10T21:00:53.813Z,25.5
2019-06-10T21:02:50.871Z,27.3
2019-06-10T21:04:50.152Z,27.3
2019-06-10T21:06:50.063Z,25.8
2019-06-10T21:08:51.205Z,26.9
2019-06-10T21:10:51.863Z,27.7
2019-06-10T21:12:50.664Z,25.6
2019-06-10T21:14:50.210Z,25.6
2019-06-10T21:16:50.907Z,25.2
2019-06-10T21:18:51.184Z,23.4
2019-06-10T21:20:53.502Z,23.9
2019-06-10T21:22:51.251Z,25.0
2019-06-10T21:24:51.168Z,25.0
2019-06-10T21:26:53.637Z,27.2
2019-06-10T21:28:51.064Z,25.5
2019-06-10T21:30:53.711Z,26.5
2019-06-10T21:32:51.068Z,28.2
2019-06-10T21:34:52.480Z,28.2
2019-06-10T21:36:52.702Z,25.7
2019-06-10T21:38:50.901Z,31.2
2019-06-10T21:40:52.095Z,25.2
2019-06-10T21:42:52.467Z,26.8
2019-06-10T21:44:50.121Z,26.8
2019-06-10T21:46:50.396Z,27.1
2019-06-10T21:48:50.545Z,31.5
2019-06-10T21:50:50.774Z,31.5
2019-06-10T21:52:50.948Z,29.0
2019-06-10T21:54:50.671Z,29.0
2019-06-10T21:56:52.342Z,28.3
2019-06-10T21:58:51.357Z,29.8
2019-06-10T22:01:00.383Z,29.8
2019-06-10T22:02:50.605Z,29.3
2019-06-10T22:04:52.489Z,27.6
2019-06-10T22:06:49.684Z,31.8
2019-06-10T22:08:50.087Z,26.8
2019-06-10T22:10:50.012Z,25.7
2019-06-10T22:12:50.618Z,25.7
2019-06-10T22:14:50.401Z,29.1
2019-06-10T22:16:50.742Z,24.1
2019-06-10T22:18:50.748Z,22.7
2019-06-10T22:20:51.375Z,24.5
2019-06-10T22:22:52.834Z,24.5
2019-06-10T22:24:49.415Z,21.3
2019-06-10T22:26:51.005Z,22.9
2019-06-10T22:28:52.023Z,24.6
2019-06-10T22:30:49.539Z,23.1
2019-06-10T22:32:49.701Z,23.1
2019-06-10T22:34:52.006Z,23.2
2019-06-10T22:36:50.001Z,26.9
2019-06-10T22:38:53.949Z,24.5
2019-06-10T22:40:51.399Z,24.5
2019-06-10T22:42:51.835Z,25.9
2019-06-10T22:44:49.630Z,25.6
2019-06-10T22:46:51.799Z,23.6
2019-06-10T22:48:51.019Z,23.6
2019-06-10T22:50:51.198Z,24.4
2019-06-10T22:52:51.275Z,24.8
2019-06-10T22:54:52.098Z,26.2
2019-06-10T22:56:49.513Z,25.5
2019-06-10T22:58:49.780Z,26.9
2019-06-10T23:00:52.491Z,26.9
2019-06-10T23:02:49.859Z,29.6
2019-06-10T23:04:51.570Z,33.4
2019-06-10T23:06:50.283Z,30.1
2019-06-10T23:08:50.357Z,29.0
2019-06-10T23:10:51.189Z,29.0
2019-06-10T23:12:51.095Z,30.9
2019-06-10T23:14:50.666Z,26.0
2019-06-10T23:16:50.825Z,26.9
2019-06-10T23:18:51.407Z,26.8
2019-06-10T23:20:49.627Z,26.8
2019-06-10T23:22:49.886Z,26.9
2019-06-10T23:24:49.821Z,27.0
2019-06-10T23:26:49.882Z,30.6
2019-06-10T23:28:49.854Z,29.8
2019-06-10T23:30:50.057Z,29.8
2019-06-10T23:32:49.978Z,30.2
2019-06-10T23:34:51.686Z,30.6
2019-06-10T23:36:50.932Z,31.6
2019-06-10T23:38:50.608Z,31.6
2019-06-10T23:40:50.618Z,27.3
2019-06-10T23:42:50.774Z,28.4
2019-06-10T23:44:50.754Z,28.4
2019-06-10T23:46:51.077Z,25.7
2019-06-10T23:48:51.330Z,25.7
2019-06-10T23:50:53.735Z,25.0
2019-06-10T23:52:49.628Z,25.3
2019-06-10T23:54:49.832Z,27.4
2019-06-10T23:56:50.001Z,27.4
2019-06-10T23:58:52.354Z,29.4
